sensor_id;sensor_type;location;lat;lon;timestamp;P1;durP1;ratioP1;P2;durP2;ratioP2
19364;SDS011;9818;48.382;10.850;2022-09-17T07:16:02;2.83;;;1.67;;
19364;SDS011;9818;48.382;10.850;2022-09-17T07:18:32;3.77;;;1.60;;
19364;SDS011;9818;48.382;10.850;2022-09-17T07:21:01;3.80;;;2.30;;
19364;SDS011;9818;48.382;10.850;2022-09-17T07:43:33;3.23;;;1.30;;
19364;SDS011;9818;48.382;10.850;2022-09-17T07:46:03;2.50;;;1.50;;
19364;SDS011;9818;48.382;10.850;2022-09-17T08:11:00;2.40;;;1.50;;
19364;SDS011;9818;48.382;10.850;2022-09-17T08:13:30;3.47;;;1.37;;
19364;SDS011;9818;48.382;10.850;2022-09-17T08:15:59;3.77;;;1.67;;
19364;SDS011;9818;48.382;10.850;2022-09-17T08:25:58;4.33;;;1.57;;
19364;SDS011;9818;48.382;10.850;2022-09-17T08:28:27;4.43;;;1.30;;
19364;SDS011;9818;48.382;10.850;2022-09-17T08:30:59;3.93;;;1.60;;
19364;SDS011;9818;48.382;10.850;2022-09-17T08:33:32;2.65;;;1.40;;
19364;SDS011;9818;48.382;10.850;2022-09-17T08:36:02;2.47;;;1.10;;
19364;SDS011;9818;48.382;10.850;2022-09-17T08:38:32;3.90;;;1.40;;
19364;SDS011;9818;48.382;10.850;2022-09-17T08:41:05;2.03;;;1.20;;
19364;SDS011;9818;48.382;10.850;2022-09-17T08:43:45;1.63;;;1.00;;
19364;SDS011;9818;48.382;10.850;2022-09-17T08:46:19;2.50;;;1.00;;
19364;SDS011;9818;48.382;10.850;2022-09-17T08:48:52;1.20;;;0.97;;
19364;SDS011;9818;48.382;10.850;2022-09-17T08:51:31;3.27;;;1.00;;
19364;SDS011;9818;48.382;10.850;2022-09-17T08:54:10;1.90;;;1.10;;
19364;SDS011;9818;48.382;10.850;2022-09-17T11:23:14;2.20;;;0.90;;
19364;SDS011;9818;48.382;10.850;2022-09-17T11:26:04;1.23;;;0.87;;
19364;SDS011;9818;48.382;10.850;2022-09-17T11:28:44;1.77;;;0.90;;
19364;SDS011;9818;48.382;10.850;2022-09-17T11:31:27;1.30;;;1.20;;
19364;SDS011;9818;48.382;10.850;2022-09-17T11:34:21;1.00;;;0.90;;
19364;SDS011;9818;48.382;10.850;2022-09-17T11:36:58;4.10;;;1.20;;
19364;SDS011;9818;48.382;10.850;2022-09-17T11:39:33;1.80;;;1.30;;
19364;SDS011;9818;48.382;10.850;2022-09-17T11:42:12;1.63;;;1.17;;
19364;SDS011;9818;48.382;10.850;2022-09-17T11:44:46;1.57;;;1.10;;
19364;SDS011;9818;48.382;10.850;2022-09-17T12:28:13;1.43;;;1.10;;
19364;SDS011;9818;48.382;10.850;2022-09-17T12:30:48;2.93;;;1.30;;
19364;SDS011;9818;48.382;10.850;2022-09-17T12:33:25;3.40;;;1.20;;
19364;SDS011;9818;48.382;10.850;2022-09-17T12:41:58;0.87;;;0.87;;
19364;SDS011;9818;48.382;10.850;2022-09-17T12:44:42;0.73;;;0.60;;
19364;SDS011;9818;48.382;10.850;2022-09-17T12:50:29;1.30;;;0.80;;
19364;SDS011;9818;48.382;10.850;2022-09-17T12:53:11;0.60;;;0.60;;
19364;SDS011;9818;48.382;10.850;2022-09-17T12:55:49;1.10;;;0.70;;
19364;SDS011;9818;48.382;10.850;2022-09-17T12:58:35;1.20;;;0.80;;
19364;SDS011;9818;48.382;10.850;2022-09-17T13:01:22;1.90;;;0.73;;
19364;SDS011;9818;48.382;10.850;2022-09-17T13:03:57;1.17;;;0.90;;
19364;SDS011;9818;48.382;10.850;2022-09-17T13:12:35;1.27;;;0.90;;
19364;SDS011;9818;48.382;10.850;2022-09-17T13:18:11;1.50;;;0.90;;
19364;SDS011;9818;48.382;10.850;2022-09-17T13:20:48;2.07;;;1.13;;
19364;SDS011;9818;48.382;10.850;2022-09-17T13:23:37;0.80;;;0.80;;
19364;SDS011;9818;48.382;10.850;2022-09-17T13:26:09;2.20;;;1.00;;
19364;SDS011;9818;48.382;10.850;2022-09-17T13:28:43;1.60;;;0.87;;
19364;SDS011;9818;48.382;10.850;2022-09-17T13:31:18;0.90;;;0.80;;
19364;SDS011;9818;48.382;10.850;2022-09-17T13:33:52;1.43;;;0.90;;
19364;SDS011;9818;48.382;10.850;2022-09-17T13:36:35;1.87;;;0.80;;
19364;SDS011;9818;48.382;10.850;2022-09-17T13:39:07;2.87;;;1.20;;
19364;SDS011;9818;48.382;10.850;2022-09-17T13:41:38;1.67;;;0.80;;
19364;SDS011;9818;48.382;10.850;2022-09-17T13:44:09;3.13;;;1.10;;
19364;SDS011;9818;48.382;10.850;2022-09-17T13:46:38;1.10;;;1.00;;
19364;SDS011;9818;48.382;10.850;2022-09-17T13:49:13;3.73;;;1.13;;
19364;SDS011;9818;48.382;10.850;2022-09-17T13:51:44;1.60;;;0.93;;
19364;SDS011;9818;48.382;10.850;2022-09-17T13:54:18;2.40;;;0.90;;
19364;SDS011;9818;48.382;10.850;2022-09-17T13:57:01;1.70;;;0.90;;
19364;SDS011;9818;48.382;10.850;2022-09-17T13:59:34;2.37;;;0.80;;
19364;SDS011;9818;48.382;10.850;2022-09-17T14:10:56;0.80;;;0.60;;
19364;SDS011;9818;48.382;10.850;2022-09-17T14:19:16;0.60;;;0.50;;
